Time;durP1;ratioP1;P1;durP2;ratioP2;P2;SDS_P1;SDS_P2;PMS_P1;PMS_P2;Temp;Humidity;BMP_temperature;BMP_pressure;BME280_temperature;BME280_humidity;BME280_pressure;Samples;Min_cycle;Max_cycle;Signal;HPM_P1;HPM_P2
2021/12/16 00:04:03;;;;;;;161.00;34.60;;;;;;;;;;5056627;27;92292;-72
2021/12/16 00:08:39;;;;;;;148.07;31.52;;;;;;;;;;5056711;27;92994;-72
2021/12/16 00:19:21;;;;;;;129.37;31.47;;;;;;;;;;5056333;27;92177;-72
2021/12/16 00:33:19;;;;;;;98.05;26.80;;;;;;;;;;5056356;27;92382;-72
2021/12/16 00:35:47;;;;;;;124.00;27.90;;;;;;;;;;5056234;27;93394;-72
2021/12/16 00:38:16;;;;;;;119.40;26.38;;;;;;;;;;5056100;27;93985;-72
2021/12/16 00:40:43;;;;;;;94.55;25.77;;;;;;;;;;5037873;27;93168;-72
2021/12/16 00:43:27;;;;;;;112.75;27.30;;;;;;;;;;5054452;27;94807;-72
2021/12/16 00:46:12;;;;;;;78.72;23.58;;;;;;;;;;5058921;27;93843;-72
2021/12/16 00:54:11;;;;;;;129.60;26.17;;;;;;;;;;5041222;27;92236;-72
2021/12/16 00:56:40;;;;;;;64.60;22.80;;;;;;;;;;5040824;27;95326;-72
2021/12/16 00:59:09;;;;;;;98.70;25.38;;;;;;;;;;5059379;27;92643;-72
2021/12/16 01:01:44;;;;;;;105.72;26.33;;;;;;;;;;5041588;27;92448;-71
2021/12/16 01:05:13;;;;;;;135.45;26.67;;;;;;;;;;5041211;27;94407;-73
2021/12/16 01:35:01;;;;;;;147.38;25.85;;;;;;;;;;5043615;27;95972;-71
2021/12/16 01:45:27;;;;;;;96.22;23.98;;;;;;;;;;5058365;27;93508;-71
2021/12/16 01:45:41;;;;;;;109.82;23.83;;;;;;;;;;5040418;27;92363;-71
2021/12/16 01:49:01;;;;;;;118.07;24.63;;;;;;;;;;5040360;27;95924;-71
2021/12/16 01:51:17;;;;;;;149.55;26.70;;;;;;;;;;5039925;27;95676;-71
2021/12/16 01:54:15;;;;;;;116.72;24.30;;;;;;;;;;5040304;27;92677;-71
2021/12/16 01:56:48;;;;;;;66.47;23.48;;;;;;;;;;5043554;27;95654;-71
2021/12/16 01:59:20;;;;;;;144.27;28.13;;;;;;;;;;5039969;27;92734;-71
2021/12/16 02:01:46;;;;;;;79.18;24.42;;;;;;;;;;5038967;27;96420;-71
2021/12/16 02:04:26;;;;;;;90.32;24.48;;;;;;;;;;5038308;27;97801;-71
2021/12/16 02:09:32;;;;;;;142.45;28.83;;;;;;;;;;5058402;27;93098;-71
2021/12/16 02:12:20;;;;;;;106.95;26.60;;;;;;;;;;5039732;27;95622;-71
2021/12/16 02:34:15;;;;;;;69.47;26.13;;;;;;;;;;5039694;27;96603;-71
2021/12/16 02:36:46;;;;;;;82.38;26.25;;;;;;;;;;5057667;27;92166;-71
2021/12/16 02:39:15;;;;;;;60.70;24.13;;;;;;;;;;5039626;27;96893;-71
2021/12/16 02:41:43;;;;;;;54.65;23.30;;;;;;;;;;5039452;27;96379;-71
2021/12/16 02:49:50;;;;;;;73.68;24.48;;;;;;;;;;5019223;27;91973;-70
2021/12/16 02:52:18;;;;;;;66.05;24.17;;;;;;;;;;5039477;27;93756;-71
2021/12/16 02:54:44;;;;;;;63.50;22.88;;;;;;;;;;5057488;27;93440;-71
2021/12/16 02:57:12;;;;;;;74.28;24.83;;;;;;;;;;5037775;27;94828;-71
2021/12/16 02:59:39;;;;;;;79.82;26.98;;;;;;;;;;5057187;27;95246;-72
2021/12/16 03:02:10;;;;;;;80.15;26.83;;;;;;;;;;5039151;27;94468;-71
2021/12/16 03:04:41;;;;;;;67.88;25.15;;;;;;;;;;5039186;27;92325;-71
2021/12/16 03:07:11;;;;;;;55.15;22.67;;;;;;;;;;5060334;27;92806;-71
2021/12/16 03:10:20;;;;;;;56.67;22.77;;;;;;;;;;5038908;27;93063;-71
2021/12/16 03:12:56;;;;;;;57.10;22.95;;;;;;;;;;5056862;27;93576;-71
2021/12/16 03:15:38;;;;;;;70.65;24.55;;;;;;;;;;5057655;27;93028;-71
2021/12/16 03:28:36;;;;;;;123.18;28.10;;;;;;;;;;5038835;27;95869;-71
2021/12/16 03:38:53;;;;;;;149.45;30.38;;;;;;;;;;5056925;27;92389;-71
2021/12/16 03:41:20;;;;;;;170.38;32.78;;;;;;;;;;5039032;27;95987;-72
2021/12/16 03:43:50;;;;;;;186.48;32.38;;;;;;;;;;5038432;27;97003;-71
2021/12/16 03:46:25;;;;;;;218.10;33.35;;;;;;;;;;5056795;27;92223;-71
2021/12/16 03:49:18;;;;;;;195.05;32.35;;;;;;;;;;5036905;27;95823;-71
2021/12/16 03:51:52;;;;;;;198.73;30.48;;;;;;;;;;5036019;27;96049;-72
2021/12/16 03:54:22;;;;;;;144.77;28.33;;;;;;;;;;5041529;27;92605;-72
2021/12/16 03:56:53;;;;;;;158.80;29.38;;;;;;;;;;5038499;27;95763;-71
2021/12/16 03:59:22;;;;;;;221.23;31.67;;;;;;;;;;5038580;27;92418;-71
2021/12/16 04:02:03;;;;;;;277.13;32.20;;;;;;;;;;5038300;27;95115;-71
2021/12/16 04:04:35;;;;;;;213.20;30.63;;;;;;;;;;5037805;27;96338;-71
2021/12/16 04:07:05;;;;;;;172.13;27.80;;;;;;;;;;5038797;27;92522;-71
2021/12/16 04:09:47;;;;;;;136.45;27.13;;;;;;;;;;5037997;27;94946;-72
2021/12/16 04:12:20;;;;;;;166.93;28.15;;;;;;;;;;5038254;27;96717;-72
2021/12/16 04:14:49;;;;;;;199.98;28.65;;;;;;;;;;5039355;27;94714;-72
2021/12/16 04:17:17;;;;;;;161.20;27.67;;;;;;;;;;5038114;27;95684;-72
2021/12/16 04:19:50;;;;;;;157.15;27.35;;;;;;;;;;5038091;27;92608;-72
2021/12/16 04:22:30;;;;;;;189.05;29.35;;;;;;;;;;5056401;27;93094;-72
2021/12/16 04:25:04;;;;;;;85.93;24.95;;;;;;;;;;5038356;27;95970;-72
2021/12/16 04:27:32;;;;;;;61.83;23.42;;;;;;;;;;5041444;27;92375;-72
2021/12/16 04:29:59;;;;;;;88.53;25.35;;;;;;;;;;5041620;27;95731;-72
2021/12/16 04:32:26;;;;;;;184.90;30.08;;;;;;;;;;5060276;27;92830;-71
2021/12/16 04:34:53;;;;;;;88.90;23.77;;;;;;;;;;5041432;27;92534;-72
2021/12/16 04:37:19;;;;;;;69.32;23.65;;;;;;;;;;5044500;27;96048;-72
2021/12/16 04:39:46;;;;;;;110.55;24.95;;;;;;;;;;5039657;27;94850;-72
2021/12/16 04:42:15;;;;;;;106.82;24.42;;;;;;;;;;5041283;27;97643;-72
2021/12/16 04:44:46;;;;;;;103.63;25.23;;;;;;;;;;5041286;27;95566;-72
2021/12/16 04:47:13;;;;;;;136.27;27.30;;;;;;;;;;5041477;27;93162;-72
2021/12/16 04:49:40;;;;;;;163.40;25.73;;;;;;;;;;5041301;27;95188;-72
2021/12/16 04:52:09;;;;;;;105.47;25.08;;;;;;;;;;5041206;27;95984;-72
2021/12/16 04:54:37;;;;;;;89.45;24.80;;;;;;;;;;5040241;27;92426;-72
2021/12/16 04:57:04;;;;;;;124.32;25.65;;;;;;;;;;5040593;27;95435;-72
2021/12/16 04:59:32;;;;;;;103.25;24.95;;;;;;;;;;5044324;27;95117;-72
2021/12/16 05:02:02;;;;;;;101.72;24.05;;;;;;;;;;5040790;27;95263;-73
2021/12/16 05:04:57;;;;;;;170.18;25.17;;;;;;;;;;5021577;27;95209;-72
2021/12/16 05:07:24;;;;;;;87.30;24.17;;;;;;;;;;5041171;27;92632;-72
2021/12/16 05:10:26;;;;;;;133.57;25.63;;;;;;;;;;4976025;28;93573;-73
2021/12/16 05:13:17;;;;;;;66.63;21.58;;;;;;;;;;5041765;27;93749;-72
2021/12/16 05:15:45;;;;;;;39.63;20.88;;;;;;;;;;5059379;27;93189;-72
2021/12/16 05:18:13;;;;;;;68.13;22.02;;;;;;;;;;5041042;27;95074;-72
2021/12/16 05:20:48;;;;;;;41.08;20.20;;;;;;;;;;5040398;27;95500;-72
2021/12/16 05:28:46;;;;;;;29.58;17.17;;;;;;;;;;5040826;27;92399;-72
2021/12/16 05:31:13;;;;;;;48.40;20.40;;;;;;;;;;5057203;27;94767;-72
2021/12/16 05:33:43;;;;;;;41.57;19.93;;;;;;;;;;5040743;27;94768;-72
2021/12/16 05:36:10;;;;;;;60.17;21.38;;;;;;;;;;5040547;27;92495;-72
2021/12/16 05:38:37;;;;;;;47.38;21.67;;;;;;;;;;5040536;27;96075;-71
2021/12/16 05:41:05;;;;;;;51.95;20.70;;;;;;;;;;5040656;27;96216;-72
2021/12/16 05:43:35;;;;;;;120.38;24.67;;;;;;;;;;5058655;27;93034;-72
2021/12/16 05:46:02;;;;;;;58.78;20.23;;;;;;;;;;5061738;27;92801;-71
2021/12/16 05:48:30;;;;;;;90.22;21.45;;;;;;;;;;5040570;27;92371;-71
2021/12/16 05:50:58;;;;;;;35.92;17.67;;;;;;;;;;5040374;27;94660;-72
2021/12/16 05:53:25;;;;;;;109.55;21.05;;;;;;;;;;5058169;27;93680;-72
2021/12/16 05:55:52;;;;;;;98.88;20.75;;;;;;;;;;5038801;27;94771;-72
2021/12/16 05:58:28;;;;;;;129.07;24.17;;;;;;;;;;5040259;27;97644;-71
2021/12/16 06:01:02;;;;;;;135.57;24.45;;;;;;;;;;5040051;27;94885;-72
2021/12/16 06:03:28;;;;;;;70.72;21.23;;;;;;;;;;5040300;27;92431;-72
2021/12/16 06:05:56;;;;;;;46.40;20.30;;;;;;;;;;5039580;27;95920;-72
2021/12/16 06:08:22;;;;;;;162.40;23.73;;;;;;;;;;5043349;27;95825;-71
2021/12/16 06:11:13;;;;;;;282.05;25.60;;;;;;;;;;5039773;27;96859;-71
2021/12/16 06:13:41;;;;;;;40.90;17.88;;;;;;;;;;5058553;27;93145;-71
2021/12/16 06:27:14;;;;;;;150.30;17.05;;;;;;;;;;5058276;27;93283;-71
2021/12/16 06:29:44;;;;;;;126.38;17.13;;;;;;;;;;5061072;27;93639;-71
2021/12/16 06:32:11;;;;;;;55.08;15.90;;;;;;;;;;5057824;27;93481;-71
2021/12/16 06:34:38;;;;;;;144.90;18.42;;;;;;;;;;5057777;27;92703;-71
2021/12/16 06:37:05;;;;;;;52.17;15.52;;;;;;;;;;5057512;27;93414;-72
2021/12/16 06:39:31;;;;;;;31.92;14.07;;;;;;;;;;5040367;27;94795;-71
2021/12/16 06:42:19;;;;;;;34.50;15.10;;;;;;;;;;5039854;27;95322;-71
2021/12/16 06:44:56;;;;;;;50.60;14.88;;;;;;;;;;5039567;27;92597;-71
2021/12/16 06:47:31;;;;;;;41.25;15.00;;;;;;;;;;5056053;27;94668;-71
2021/12/16 06:49:57;;;;;;;43.80;15.02;;;;;;;;;;5057181;27;93362;-71
2021/12/16 06:52:32;;;;;;;61.80;15.02;;;;;;;;;;5060769;27;92268;-71
2021/12/16 06:55:08;;;;;;;47.58;13.57;;;;;;;;;;5040878;27;93714;-71
2021/12/16 06:57:41;;;;;;;50.00;13.98;;;;;;;;;;5057783;27;92397;-71
2021/12/16 07:00:17;;;;;;;26.77;13.13;;;;;;;;;;5057236;27;93557;-71
2021/12/16 07:03:04;;;;;;;32.15;13.45;;;;;;;;;;5057372;27;93742;-71
2021/12/16 07:05:32;;;;;;;20.70;12.73;;;;;;;;;;5057812;27;91588;-71
2021/12/16 07:07:59;;;;;;;52.42;14.05;;;;;;;;;;5057343;27;92765;-71
2021/12/16 07:10:26;;;;;;;69.22;15.25;;;;;;;;;;5056603;27;94088;-73
2021/12/16 07:12:54;;;;;;;81.88;15.75;;;;;;;;;;5055882;27;94675;-71
2021/12/16 07:15:23;;;;;;;68.80;14.73;;;;;;;;;;5059951;27;95883;-71
2021/12/16 07:17:50;;;;;;;85.85;15.90;;;;;;;;;;5057323;27;92373;-72
2021/12/16 07:20:18;;;;;;;270.00;19.42;;;;;;;;;;5057167;27;93469;-72
2021/12/16 07:22:44;;;;;;;72.85;16.38;;;;;;;;;;5056935;27;93775;-72
2021/12/16 07:25:11;;;;;;;127.47;17.35;;;;;;;;;;5056751;27;92953;-72
2021/12/16 07:27:37;;;;;;;143.88;17.13;;;;;;;;;;5057180;27;93769;-72
2021/12/16 07:30:05;;;;;;;202.73;17.08;;;;;;;;;;5057129;27;93166;-71
2021/12/16 07:32:31;;;;;;;150.27;16.30;;;;;;;;;;5057020;27;92315;-71
2021/12/16 07:34:58;;;;;;;238.30;18.67;;;;;;;;;;5056976;27;93392;-71
2021/12/16 07:37:24;;;;;;;333.65;21.17;;;;;;;;;;5040143;27;97213;-71
2021/12/16 07:39:52;;;;;;;361.10;26.42;;;;;;;;;;5056158;27;95910;-71
2021/12/16 07:42:26;;;;;;;123.50;16.90;;;;;;;;;;5056455;27;92894;-71
2021/12/16 07:44:53;;;;;;;306.88;20.92;;;;;;;;;;5056551;27;92345;-71
2021/12/16 07:47:19;;;;;;;167.93;19.35;;;;;;;;;;5056749;27;93586;-74
2021/12/16 07:49:46;;;;;;;327.80;20.40;;;;;;;;;;5056635;27;93104;-75
2021/12/16 07:52:14;;;;;;;29.48;14.25;;;;;;;;;;5056476;27;92346;-72
2021/12/16 07:54:40;;;;;;;209.65;17.27;;;;;;;;;;5057164;27;93652;-71
2021/12/16 07:57:07;;;;;;;164.85;16.90;;;;;;;;;;5056499;27;93599;-71
2021/12/16 07:59:34;;;;;;;163.00;14.75;;;;;;;;;;5059667;27;92414;-71
2021/12/16 08:02:01;;;;;;;49.25;12.43;;;;;;;;;;5054839;27;96331;-71
2021/12/16 08:04:29;;;;;;;106.72;14.38;;;;;;;;;;5056764;27;92224;-71
2021/12/16 08:06:58;;;;;;;101.95;14.00;;;;;;;;;;5055908;27;93463;-70
2021/12/16 08:09:25;;;;;;;90.75;13.43;;;;;;;;;;5056393;27;93664;-70
2021/12/16 08:11:51;;;;;;;51.47;12.77;;;;;;;;;;5056084;27;92206;-71
2021/12/16 08:14:19;;;;;;;45.47;12.52;;;;;;;;;;5056488;27;93707;-71
2021/12/16 08:16:45;;;;;;;254.88;16.33;;;;;;;;;;5056315;27;93517;-70
2021/12/16 08:19:12;;;;;;;41.10;12.85;;;;;;;;;;5056546;27;91566;-72
2021/12/16 08:21:39;;;;;;;154.82;18.02;;;;;;;;;;5059129;27;92942;-70
2021/12/16 08:24:07;;;;;;;123.07;16.58;;;;;;;;;;5056226;27;92184;-70
2021/12/16 08:26:35;;;;;;;68.03;14.23;;;;;;;;;;5037085;27;94796;-70
2021/12/16 08:29:01;;;;;;;86.55;14.40;;;;;;;;;;5038368;27;94088;-70
2021/12/16 08:31:28;;;;;;;75.22;13.65;;;;;;;;;;5056339;27;92313;-70
2021/12/16 08:33:56;;;;;;;94.43;14.20;;;;;;;;;;5056043;27;93696;-71
2021/12/16 08:36:23;;;;;;;51.10;12.30;;;;;;;;;;5056060;27;93386;-71
2021/12/16 08:38:49;;;;;;;84.28;14.25;;;;;;;;;;5056383;27;92479;-70
2021/12/16 08:41:18;;;;;;;48.35;12.98;;;;;;;;;;5059092;27;93599;-70
2021/12/16 08:43:45;;;;;;;21.58;12.25;;;;;;;;;;5056724;27;91707;-70
2021/12/16 08:46:13;;;;;;;56.47;12.52;;;;;;;;;;5056110;27;92703;-70
2021/12/16 08:48:42;;;;;;;62.13;15.20;;;;;;;;;;5055537;27;93491;-72
2021/12/16 08:51:08;;;;;;;32.40;13.15;;;;;;;;;;5054497;27;94723;-71
2021/12/16 08:53:35;;;;;;;46.35;12.18;;;;;;;;;;5055953;27;96138;-72
2021/12/16 08:56:04;;;;;;;37.95;12.82;;;;;;;;;;5055930;27;93619;-72
2021/12/16 08:58:31;;;;;;;72.50;13.32;;;;;;;;;;5055804;27;92250;-71
2021/12/16 09:01:00;;;;;;;63.45;12.80;;;;;;;;;;5055751;27;92808;-72
2021/12/16 09:03:27;;;;;;;34.67;11.85;;;;;;;;;;5040653;27;96418;-72
2021/12/16 09:05:54;;;;;;;46.67;14.88;;;;;;;;;;5055929;27;93594;-72
2021/12/16 09:08:21;;;;;;;31.25;11.95;;;;;;;;;;5056088;27;92876;-71
2021/12/16 09:10:47;;;;;;;25.08;12.73;;;;;;;;;;5055475;27;92453;-71
2021/12/16 09:13:15;;;;;;;31.80;13.75;;;;;;;;;;5059136;27;93532;-71
2021/12/16 09:15:44;;;;;;;27.77;14.40;;;;;;;;;;5056680;27;94803;-72
2021/12/16 09:18:11;;;;;;;22.13;12.40;;;;;;;;;;5059147;27;92491;-72
2021/12/16 09:20:38;;;;;;;15.60;13.30;;;;;;;;;;5059067;27;93333;-71
2021/12/16 09:23:05;;;;;;;15.82;13.93;;;;;;;;;;5059154;27;93952;-72
2021/12/16 09:25:32;;;;;;;17.88;12.82;;;;;;;;;;5062422;27;92267;-72
2021/12/16 09:27:58;;;;;;;16.25;13.55;;;;;;;;;;5058910;27;93709;-72
2021/12/16 09:30:25;;;;;;;15.57;13.13;;;;;;;;;;5064043;27;92441;-72
2021/12/16 09:32:53;;;;;;;14.43;12.90;;;;;;;;;;5079623;27;93456;-72
2021/12/16 09:35:20;;;;;;;15.52;13.88;;;;;;;;;;5099755;27;94671;-72
2021/12/16 09:37:47;;;;;;;20.20;14.85;;;;;;;;;;5099950;27;92329;-72
2021/12/16 09:40:16;;;;;;;14.10;12.65;;;;;;;;;;5098390;27;94599;-72
2021/12/16 09:42:42;;;;;;;16.23;14.38;;;;;;;;;;5099790;27;93438;-72
2021/12/16 09:45:10;;;;;;;14.95;13.35;;;;;;;;;;5099932;27;92185;-72
2021/12/16 09:47:37;;;;;;;16.60;14.35;;;;;;;;;;5102973;27;93026;-72
2021/12/16 09:50:04;;;;;;;16.05;13.93;;;;;;;;;;5099846;27;92220;-73
2021/12/16 09:52:31;;;;;;;17.20;14.48;;;;;;;;;;5099610;27;93815;-73
2021/12/16 09:54:57;;;;;;;16.30;14.13;;;;;;;;;;5099554;27;93558;-73
2021/12/16 09:57:24;;;;;;;16.60;14.07;;;;;;;;;;5100109;27;91563;-73
2021/12/16 09:59:50;;;;;;;14.95;13.35;;;;;;;;;;5099305;27;92859;-73
2021/12/16 10:02:18;;;;;;;13.27;11.93;;;;;;;;;;5099551;27;93221;-72
2021/12/16 10:04:45;;;;;;;14.38;12.88;;;;;;;;;;5097908;27;94836;-73
2021/12/16 10:07:14;;;;;;;14.70;12.77;;;;;;;;;;5099178;27;93970;-73
2021/12/16 10:09:41;;;;;;;15.10;13.30;;;;;;;;;;5102630;27;93834;-73
2021/12/16 10:12:13;;;;;;;15.10;13.43;;;;;;;;;;5098899;27;93375;-72
2021/12/16 10:17:31;;;;;;;18.98;15.13;;;;;;;;;;5081251;27;93811;-73
2021/12/16 10:19:59;;;;;;;17.02;13.88;;;;;;;;;;5099173;27;93509;-73
2021/12/16 10:22:33;;;;;;;21.05;17.50;;;;;;;;;;5080290;27;96443;-72
2021/12/16 10:25:17;;;;;;;22.00;17.80;;;;;;;;;;5098843;27;92358;-73
2021/12/16 10:27:51;;;;;;;25.50;17.88;;;;;;;;;;5099191;27;92892;-72
2021/12/16 10:30:17;;;;;;;36.67;21.05;;;;;;;;;;5097291;27;96150;-72
2021/12/16 10:32:45;;;;;;;49.78;24.58;;;;;;;;;;5101715;27;92518;-72
2021/12/16 10:35:29;;;;;;;41.47;22.77;;;;;;;;;;5098575;27;93883;-73
2021/12/16 10:38:00;;;;;;;43.95;23.33;;;;;;;;;;5099190;27;92320;-72
2021/12/16 10:40:32;;;;;;;38.03;23.60;;;;;;;;;;5086419;27;93617;-72
2021/12/16 10:43:03;;;;;;;45.25;22.00;;;;;;;;;;5057486;27;93587;-72
2021/12/16 10:45:32;;;;;;;45.95;22.50;;;;;;;;;;5064356;27;92424;-73
2021/12/16 10:48:10;;;;;;;39.40;23.15;;;;;;;;;;5078634;27;92805;-72
2021/12/16 10:50:55;;;;;;;45.30;23.55;;;;;;;;;;5063911;27;92662;-73
2021/12/16 10:53:40;;;;;;;49.33;23.73;;;;;;;;;;5042505;27;94027;-74
2021/12/16 10:56:07;;;;;;;44.03;22.52;;;;;;;;;;5055458;27;97018;-75
2021/12/16 10:58:52;;;;;;;36.78;21.83;;;;;;;;;;5057569;27;93324;-73
2021/12/16 11:01:37;;;;;;;46.08;24.38;;;;;;;;;;5057527;27;93660;-73
2021/12/16 11:04:07;;;;;;;49.10;24.65;;;;;;;;;;5057210;27;93530;-73
2021/12/16 11:06:37;;;;;;;46.53;24.47;;;;;;;;;;5057707;27;92386;-74
2021/12/16 11:09:23;;;;;;;50.17;25.02;;;;;;;;;;5057286;27;93947;-72
2021/12/16 11:12:04;;;;;;;52.97;24.25;;;;;;;;;;5056928;27;93905;-73
2021/12/16 11:14:30;;;;;;;45.65;23.52;;;;;;;;;;5057760;27;92875;-74
2021/12/16 11:16:58;;;;;;;44.25;23.98;;;;;;;;;;5060226;27;92936;-74
2021/12/16 11:19:37;;;;;;;47.38;22.77;;;;;;;;;;5057267;27;92246;-75
2021/12/16 11:22:04;;;;;;;47.00;23.73;;;;;;;;;;5055911;27;94652;-74
2021/12/16 11:24:30;;;;;;;45.60;23.10;;;;;;;;;;5055918;27;94966;-74
2021/12/16 11:26:56;;;;;;;46.63;23.45;;;;;;;;;;5057019;27;92368;-74
2021/12/16 11:29:30;;;;;;;43.60;23.25;;;;;;;;;;5056707;27;93506;-74
2021/12/16 11:31:57;;;;;;;40.63;22.08;;;;;;;;;;5056817;27;93736;-73
2021/12/16 11:34:23;;;;;;;42.35;23.35;;;;;;;;;;5056581;27;92235;-74
2021/12/16 11:36:53;;;;;;;43.63;22.98;;;;;;;;;;5039379;27;92783;-74
2021/12/16 11:39:24;;;;;;;41.83;21.83;;;;;;;;;;5060740;27;93026;-74
2021/12/16 11:41:52;;;;;;;44.70;22.77;;;;;;;;;;5056488;27;94519;-74
2021/12/16 11:44:24;;;;;;;39.50;21.60;;;;;;;;;;5056694;27;93231;-74
2021/12/16 11:46:55;;;;;;;38.53;21.80;;;;;;;;;;5037497;27;95394;-74
2021/12/16 11:49:33;;;;;;;39.25;21.58;;;;;;;;;;5038640;27;99344;-74
2021/12/16 11:52:07;;;;;;;37.67;21.60;;;;;;;;;;5056513;27;93834;-74
2021/12/16 11:54:34;;;;;;;41.38;22.35;;;;;;;;;;5056790;27;92490;-74
2021/12/16 11:57:05;;;;;;;39.30;21.60;;;;;;;;;;5056610;27;93043;-74
2021/12/16 11:59:50;;;;;;;36.25;21.60;;;;;;;;;;5056702;27;92880;-76
2021/12/16 12:02:21;;;;;;;36.65;21.88;;;;;;;;;;5059932;27;92277;-77
2021/12/16 12:04:48;;;;;;;43.88;22.52;;;;;;;;;;5056963;27;92730;-73
2021/12/16 12:07:15;;;;;;;47.28;23.27;;;;;;;;;;5056618;27;92254;-74
2021/12/16 12:09:47;;;;;;;41.55;22.40;;;;;;;;;;5055668;27;94587;-74
2021/12/16 12:12:15;;;;;;;38.00;22.27;;;;;;;;;;5054643;27;95709;-74
2021/12/16 12:14:42;;;;;;;36.70;22.98;;;;;;;;;;5056310;27;92244;-74
2021/12/16 12:17:16;;;;;;;37.00;23.50;;;;;;;;;;5056223;27;93219;-74
2021/12/16 12:19:44;;;;;;;37.50;23.50;;;;;;;;;;5056120;27;93661;-73
2021/12/16 12:22:10;;;;;;;44.17;22.63;;;;;;;;;;5056609;27;92248;-74
2021/12/16 12:24:38;;;;;;;40.65;22.65;;;;;;;;;;5059539;27;93547;-74
2021/12/16 12:27:11;;;;;;;44.35;21.95;;;;;;;;;;5056533;27;92383;-74
2021/12/16 12:29:40;;;;;;;42.30;23.25;;;;;;;;;;5055555;27;93509;-75
2021/12/16 12:32:15;;;;;;;37.63;22.38;;;;;;;;;;5055310;27;92909;-74
2021/12/16 12:34:42;;;;;;;31.98;20.90;;;;;;;;;;5057276;27;92750;-74
2021/12/16 12:37:11;;;;;;;39.05;22.77;;;;;;;;;;5074956;27;95056;-74
2021/12/16 12:39:39;;;;;;;44.95;22.63;;;;;;;;;;5069032;27;93803;-74
2021/12/16 12:42:06;;;;;;;38.63;22.48;;;;;;;;;;5055948;27;92224;-75
2021/12/16 12:44:33;;;;;;;36.75;23.00;;;;;;;;;;5058923;27;92863;-74
2021/12/16 12:47:01;;;;;;;36.83;23.70;;;;;;;;;;5057659;27;92247;-74
2021/12/16 12:49:29;;;;;;;39.63;22.23;;;;;;;;;;5059803;27;93976;-74
2021/12/16 12:52:10;;;;;;;31.63;22.35;;;;;;;;;;5059509;27;93119;-74
2021/12/16 12:54:39;;;;;;;35.20;23.73;;;;;;;;;;5059881;27;91649;-74
2021/12/16 12:57:20;;;;;;;40.33;23.65;;;;;;;;;;5059478;27;92563;-74
2021/12/16 12:59:47;;;;;;;41.65;21.73;;;;;;;;;;5059442;27;92939;-74
2021/12/16 13:02:18;;;;;;;33.20;20.77;;;;;;;;;;5057909;27;94544;-75
2021/12/16 13:04:52;;;;;;;31.70;22.13;;;;;;;;;;5059456;27;95794;-74
2021/12/16 13:07:29;;;;;;;34.33;22.65;;;;;;;;;;5062183;27;93557;-74
2021/12/16 13:09:55;;;;;;;30.08;21.08;;;;;;;;;;5059010;27;93815;-74
2021/12/16 13:12:36;;;;;;;34.15;22.25;;;;;;;;;;5059071;27;93141;-74
2021/12/16 13:24:09;;;;;;;35.28;22.08;;;;;;;;;;5058954;27;92222;-74
2021/12/16 13:26:41;;;;;;;35.60;21.80;;;;;;;;;;5041383;27;93293;-74
2021/12/16 13:29:12;;;;;;;;;;;;;;;;;;5057542;27;96155;-75
2021/12/16 13:31:45;;;;;;;39.72;21.80;;;;;;;;;;5062098;27;118794;-74
2021/12/16 13:34:26;;;;;;;37.85;21.55;;;;;;;;;;5040931;27;94948;-74
2021/12/16 13:36:58;;;;;;;46.47;22.45;;;;;;;;;;5058886;27;92302;-74
2021/12/16 13:39:25;;;;;;;41.03;24.08;;;;;;;;;;5059025;27;93125;-74
2021/12/16 13:41:57;;;;;;;34.85;23.08;;;;;;;;;;5041008;27;93509;-74
2021/12/16 13:44:37;;;;;;;44.60;23.23;;;;;;;;;;5058844;27;92479;-74
2021/12/16 13:47:11;;;;;;;40.72;23.92;;;;;;;;;;5058915;27;92847;-74
2021/12/16 13:58:41;;;;;;;43.30;26.23;;;;;;;;;;5058462;27;92321;-74
2021/12/16 14:01:28;;;;;;;;;;;;;;;;;;5070215;27;94578;-74
2021/12/16 14:06:38;;;;;;;54.63;28.48;;;;;;;;;;5079136;27;92340;-74
2021/12/16 14:09:12;;;;;;;91.55;27.42;;;;;;;;;;5061050;27;92926;-74
2021/12/16 14:14:42;;;;;;;124.80;30.90;;;;;;;;;;5079024;27;92535;-74
2021/12/16 14:17:40;;;;;;;145.40;30.63;;;;;;;;;;5078877;27;93096;-74
2021/12/16 14:23:31;;;;;;;114.18;30.63;;;;;;;;;;5056549;27;95707;-74
2021/12/16 14:26:16;;;;;;;75.22;30.45;;;;;;;;;;5078465;27;93593;-74
2021/12/16 14:34:53;;;;;;;354.40;35.63;;;;;;;;;;5078066;27;93487;-74
2021/12/16 14:37:17;;;;;;;88.78;28.55;;;;;;;;;;5077667;27;92319;-74
2021/12/16 14:40:03;;;;;;;82.72;29.98;;;;;;;;;;5078748;27;93084;-74
2021/12/16 14:42:45;;;;;;;103.28;30.95;;;;;;;;;;5078984;27;92862;-74
2021/12/16 14:45:26;;;;;;;153.10;32.88;;;;;;;;;;5081158;27;92235;-74
2021/12/16 14:48:07;;;;;;;107.90;30.38;;;;;;;;;;5078096;27;93128;-74
2021/12/16 14:50:36;;;;;;;240.17;32.77;;;;;;;;;;5076570;27;94881;-73
2021/12/16 14:53:12;;;;;;;98.68;29.23;;;;;;;;;;5078027;27;96098;-74
2021/12/16 14:55:38;;;;;;;375.38;36.47;;;;;;;;;;5077904;27;93822;-74
2021/12/16 14:58:05;;;;;;;256.67;31.63;;;;;;;;;;5077804;27;92288;-75
2021/12/16 15:00:40;;;;;;;210.77;29.98;;;;;;;;;;5077919;27;93795;-76
2021/12/16 15:03:10;;;;;;;161.27;29.63;;;;;;;;;;5078322;27;92285;-75
2021/12/16 15:05:45;;;;;;;119.60;28.83;;;;;;;;;;5080946;27;92273;-75
2021/12/16 15:08:21;;;;;;;143.75;28.83;;;;;;;;;;5077838;27;92231;-74
2021/12/16 15:10:47;;;;;;;95.38;28.98;;;;;;;;;;5077168;27;92223;-75
2021/12/16 15:13:25;;;;;;;168.25;28.55;;;;;;;;;;5059122;27;96221;-74
2021/12/16 15:16:25;;;;;;;80.00;25.65;;;;;;;;;;5076015;27;96090;-74
2021/12/16 15:38:36;;;;;;;73.75;27.42;;;;;;;;;;5077446;27;92996;-72
2021/12/16 15:43:55;;;;;;;89.78;26.83;;;;;;;;;;5075435;27;95242;-74
2021/12/16 15:46:32;;;;;;;294.38;30.98;;;;;;;;;;5077146;27;93515;-72
2021/12/16 15:48:59;;;;;;;45.05;24.95;;;;;;;;;;5077310;27;92181;-75
2021/12/16 15:51:26;;;;;;;141.73;27.40;;;;;;;;;;5077083;27;93757;-74
2021/12/16 15:53:55;;;;;;;139.98;26.98;;;;;;;;;;5080422;27;93436;-74
2021/12/16 15:56:24;;;;;;;58.00;23.73;;;;;;;;;;5076914;27;93792;-74
2021/12/16 15:58:50;;;;;;;97.25;26.98;;;;;;;;;;5076702;27;93698;-74
2021/12/16 16:01:22;;;;;;;127.88;26.88;;;;;;;;;;5076827;27;91633;-74
2021/12/16 16:03:48;;;;;;;;;;;;;;;;;;5077615;27;92732;-75
2021/12/16 16:06:16;;;;;;;62.53;24.85;;;;;;;;;;5070680;27;123058;-72
2021/12/16 16:08:53;;;;;;;55.15;24.98;;;;;;;;;;5053657;27;95494;-72
2021/12/16 16:11:22;;;;;;;48.85;25.75;;;;;;;;;;5067290;27;95824;-73
2021/12/16 16:13:52;;;;;;;494.65;39.63;;;;;;;;;;5076887;27;93008;-74
2021/12/16 16:16:21;;;;;;;542.00;41.33;;;;;;;;;;5061794;27;92367;-74
2021/12/16 16:19:00;;;;;;;560.95;41.88;;;;;;;;;;5056269;27;94001;-74
2021/12/16 16:21:31;;;;;;;607.47;39.40;;;;;;;;;;5057320;27;92334;-72
2021/12/16 16:24:03;;;;;;;173.73;29.85;;;;;;;;;;5060434;27;93154;-73
2021/12/16 16:26:34;;;;;;;300.77;32.70;;;;;;;;;;5059981;27;92425;-73
2021/12/16 16:29:05;;;;;;;304.88;31.70;;;;;;;;;;5059970;27;92251;-72
2021/12/16 16:31:32;;;;;;;402.17;33.08;;;;;;;;;;5060047;27;93654;-73
2021/12/16 16:34:00;;;;;;;228.25;30.15;;;;;;;;;;5058144;27;96327;-73
2021/12/16 16:36:28;;;;;;;395.38;33.38;;;;;;;;;;5059691;27;92203;-73
2021/12/16 16:39:07;;;;;;;272.73;31.88;;;;;;;;;;5062990;27;93656;-73
2021/12/16 16:41:37;;;;;;;119.82;26.83;;;;;;;;;;5060041;27;92225;-72
2021/12/16 16:44:07;;;;;;;171.57;27.63;;;;;;;;;;5059759;27;93456;-73
2021/12/16 16:46:42;;;;;;;222.23;29.02;;;;;;;;;;5041862;27;93676;-75
2021/12/16 16:49:23;;;;;;;361.08;34.97;;;;;;;;;;5059899;27;92297;-72
2021/12/16 16:51:50;;;;;;;244.97;29.83;;;;;;;;;;5060088;27;93514;-73
2021/12/16 16:54:30;;;;;;;285.73;35.28;;;;;;;;;;5059453;27;93604;-72
2021/12/16 16:56:59;;;;;;;166.90;30.83;;;;;;;;;;5059606;27;92300;-73
2021/12/16 16:59:35;;;;;;;172.70;32.35;;;;;;;;;;5057625;27;94878;-74
2021/12/16 17:02:13;;;;;;;105.47;28.60;;;;;;;;;;5061741;27;93042;-73
2021/12/16 17:04:40;;;;;;;188.27;29.55;;;;;;;;;;5059693;27;93654;-73
2021/12/16 17:07:07;;;;;;;167.07;27.75;;;;;;;;;;5058966;27;93122;-72
2021/12/16 17:09:37;;;;;;;145.88;36.80;;;;;;;;;;5059898;27;92391;-73
2021/12/16 17:12:11;;;;;;;129.00;33.42;;;;;;;;;;5078674;27;93401;-72
2021/12/16 17:14:42;;;;;;;143.75;33.67;;;;;;;;;;5079001;27;93150;-73
2021/12/16 17:17:13;;;;;;;102.68;28.95;;;;;;;;;;5062055;27;95538;-72
2021/12/16 17:19:42;;;;;;;96.15;27.33;;;;;;;;;;5078839;27;92607;-72
2021/12/16 17:22:32;;;;;;;201.02;33.75;;;;;;;;;;5100512;27;93026;-73
2021/12/16 17:24:58;;;;;;;59.97;28.83;;;;;;;;;;5097976;27;94787;-73
2021/12/16 17:27:31;;;;;;;107.57;28.45;;;;;;;;;;5073951;27;93439;-72
2021/12/16 17:29:59;;;;;;;109.22;26.80;;;;;;;;;;5079059;27;92319;-72
2021/12/16 17:32:32;;;;;;;159.32;27.95;;;;;;;;;;5079033;27;92284;-72
2021/12/16 17:35:01;;;;;;;103.57;28.65;;;;;;;;;;5079288;27;92201;-73
2021/12/16 17:37:29;;;;;;;109.10;27.30;;;;;;;;;;5078918;27;92471;-72
2021/12/16 17:39:57;;;;;;;305.30;42.08;;;;;;;;;;5079094;27;93560;-72
2021/12/16 17:42:34;;;;;;;257.98;38.85;;;;;;;;;;5061385;27;92967;-72